createdAt,value
2018-01-01T00:00:55.354Z,14.80
2018-01-01T00:03:22.092Z,15.73
2018-01-01T00:05:50.413Z,18.37
2018-01-01T00:08:17.933Z,16.73
2018-01-01T00:10:44.970Z,15.70
2018-01-01T00:13:11.896Z,16.62
2018-01-01T00:15:44.202Z,18.65
2018-01-01T00:18:11.007Z,17.50
2018-01-01T00:20:38.430Z,18.40
2018-01-01T00:23:05.171Z,20.05
2018-01-01T00:25:32.701Z,23.10
2018-01-01T00:28:03.231Z,21.40
2018-01-01T00:30:29.984Z,17.85
2018-01-01T00:32:58.138Z,18.65
2018-01-01T00:37:55.910Z,14.70
2018-01-01T00:40:22.642Z,14.95
2018-01-01T00:42:50.374Z,15.10
2018-01-01T00:45:18.987Z,14.38
2018-01-01T00:47:45.743Z,15.57
2018-01-01T00:55:24.078Z,20.50
2018-01-01T00:57:53.430Z,21.25
2018-01-01T01:00:20.174Z,21.12
2018-01-01T01:02:47.480Z,21.20
2018-01-01T01:05:15.941Z,19.50
2018-01-01T01:07:43.112Z,18.92
2018-01-01T01:12:42.490Z,18.12
2018-01-01T01:15:10.871Z,16.35
2018-01-01T01:17:38.114Z,15.82
2018-01-01T01:22:36.802Z,13.40
2018-01-01T01:25:03.588Z,13.07
2018-01-01T01:27:30.297Z,13.07
2018-01-01T01:29:57.046Z,14.25
2018-01-01T01:32:23.775Z,12.82
2018-01-01T01:34:52.222Z,12.95
2018-01-01T01:37:18.946Z,13.40
2018-01-01T01:39:45.681Z,12.27
2018-01-01T01:42:12.417Z,12.90
2018-01-01T01:44:39.173Z,11.10
2018-01-01T01:47:05.919Z,10.65
2018-01-01T01:49:34.375Z,10.00
2018-01-01T01:52:01.090Z,11.23
2018-01-01T01:59:35.479Z,9.90
2018-01-01T02:02:02.244Z,9.15
2018-01-01T02:04:28.985Z,9.77
2018-01-01T02:06:57.554Z,8.40
2018-01-01T02:09:26.214Z,8.55
2018-01-01T02:11:54.587Z,7.95
2018-01-01T02:19:24.963Z,8.40
2018-01-01T02:21:55.646Z,5.95
2018-01-01T02:24:22.382Z,6.47
2018-01-01T02:26:49.101Z,5.53
2018-01-01T02:31:52.015Z,5.30
2018-01-01T02:34:20.400Z,6.28
2018-01-01T02:36:47.370Z,5.22
2018-01-01T02:39:14.106Z,4.68
2018-01-01T02:46:42.846Z,5.82
2018-01-01T02:49:09.627Z,5.25
2018-01-01T02:51:39.976Z,5.28
2018-01-01T02:54:07.302Z,3.40
2018-01-01T02:59:06.675Z,4.15
2018-01-01T03:06:35.862Z,2.70
2018-01-01T03:09:08.937Z,2.53
2018-01-01T03:11:37.543Z,3.65
2018-01-01T03:14:04.298Z,2.22
2018-01-01T03:16:31.031Z,2.70
2018-01-01T03:18:57.750Z,2.12
2018-01-01T03:21:24.494Z,1.50
2018-01-01T03:23:52.195Z,1.50
2018-01-01T03:26:19.642Z,1.45
2018-01-01T03:28:47.187Z,2.20
2018-01-01T03:33:44.923Z,1.58
2018-01-01T03:36:12.296Z,1.33
2018-01-01T03:38:39.039Z,1.25
2018-01-01T03:43:36.829Z,1.08
2018-01-01T03:46:03.592Z,1.50
2018-01-01T03:48:30.331Z,1.55
2018-01-01T03:53:28.145Z,1.33
2018-01-01T04:00:57.112Z,1.05
2018-01-01T04:03:25.567Z,1.27
2018-01-01T04:05:52.591Z,1.45
2018-01-01T04:08:19.309Z,1.23
2018-01-01T04:13:17.383Z,1.60
2018-01-01T04:15:45.954Z,1.10
2018-01-01T04:18:13.470Z,1.52
2018-01-01T04:20:40.426Z,1.20
2018-01-01T04:23:08.412Z,0.93
2018-01-01T04:28:07.723Z,1.12
2018-01-01T04:35:38.190Z,1.30
2018-01-01T04:38:04.926Z,1.55
2018-01-01T04:40:33.526Z,1.10
2018-01-01T04:43:02.131Z,0.77
2018-01-01T04:45:28.886Z,1.20
2018-01-01T04:47:56.012Z,1.40
2018-01-01T04:50:23.139Z,1.10
2018-01-01T04:52:49.864Z,1.10
2018-01-01T04:55:17.834Z,1.10
2018-01-01T04:57:46.040Z,1.70
2018-01-01T05:00:12.914Z,1.10
2018-01-01T05:02:39.674Z,1.27
2018-01-01T05:05:06.467Z,1.02
2018-01-01T05:07:33.226Z,1.12
2018-01-01T05:10:00.245Z,1.20
2018-01-01T05:12:27.228Z,0.90
2018-01-01T05:17:28.793Z,1.40
2018-01-01T05:22:28.307Z,1.50
2018-01-01T05:27:26.056Z,1.25
2018-01-01T05:29:53.078Z,1.50
2018-01-01T05:34:52.537Z,1.85
2018-01-01T05:39:55.008Z,1.02
2018-01-01T05:44:55.454Z,1.80
2018-01-01T05:47:23.129Z,1.30
2018-01-01T05:52:21.768Z,1.52
2018-01-01T05:54:49.246Z,1.27
2018-01-01T05:57:17.718Z,2.55
2018-01-01T05:59:45.934Z,1.15
2018-01-01T06:02:12.717Z,1.08
2018-01-01T06:07:10.718Z,1.05
2018-01-01T06:09:38.211Z,1.80
2018-01-01T06:12:05.207Z,1.02
2018-01-01T06:14:31.951Z,1.08
2018-01-01T06:16:58.695Z,1.20
2018-01-01T06:19:25.430Z,1.30
2018-01-01T06:21:52.958Z,1.52
2018-01-01T06:24:20.565Z,1.25
2018-01-01T06:26:47.323Z,1.30
2018-01-01T06:29:14.446Z,1.77
2018-01-01T06:31:42.035Z,1.23
2018-01-01T06:34:08.814Z,1.10
2018-01-01T06:36:36.403Z,1.40
2018-01-01T06:39:03.504Z,1.20
2018-01-01T06:41:33.845Z,1.08
2018-01-01T06:49:02.607Z,1.80
2018-01-01T06:51:29.344Z,1.25
2018-01-01T06:56:27.587Z,1.62
2018-01-01T06:58:54.799Z,1.35
2018-01-01T07:01:21.533Z,1.00
2018-01-01T07:11:23.114Z,1.10
2018-01-01T07:13:50.188Z,1.10
2018-01-01T07:16:17.726Z,1.00
2018-01-01T07:26:17.591Z,0.98
2018-01-01T07:31:16.963Z,1.20
2018-01-01T07:36:14.807Z,1.30
2018-01-01T07:41:13.294Z,1.17
2018-01-01T07:48:44.604Z,1.10
2018-01-01T07:51:13.178Z,1.20
2018-01-01T07:53:39.938Z,1.02
2018-01-01T07:56:09.791Z,1.00
2018-01-01T07:58:40.786Z,1.00
2018-01-01T08:01:07.528Z,1.25
2018-01-01T08:03:34.714Z,0.95
2018-01-01T08:06:01.421Z,1.00
2018-01-01T08:08:28.407Z,1.35
2018-01-01T08:10:55.502Z,1.00
2018-01-01T08:13:22.490Z,1.00
2018-01-01T08:15:49.454Z,2.50
2018-01-01T08:18:16.238Z,1.48
2018-01-01T08:20:43.214Z,1.35
2018-01-01T08:23:09.990Z,1.30
2018-01-01T08:25:36.757Z,1.60
2018-01-01T08:28:03.535Z,1.40
2018-01-01T08:30:30.292Z,1.80
2018-01-01T08:32:57.543Z,1.35
2018-01-01T08:37:56.020Z,1.83
2018-01-01T08:40:23.231Z,0.98
2018-01-01T08:42:49.966Z,1.45
2018-01-01T08:45:18.349Z,1.35
2018-01-01T08:47:45.057Z,1.10
2018-01-01T08:50:11.775Z,1.40
2018-01-01T08:52:39.446Z,1.40
2018-01-01T08:55:07.134Z,1.17
2018-01-01T08:57:33.823Z,1.10
2018-01-01T09:00:00.586Z,1.02
2018-01-01T09:02:27.738Z,1.70
2018-01-01T09:04:55.188Z,1.65
2018-01-01T09:07:21.973Z,1.50
2018-01-01T09:09:48.780Z,1.98
2018-01-01T09:12:16.033Z,1.20
2018-01-01T09:14:42.773Z,1.90
2018-01-01T09:17:09.554Z,1.37
2018-01-01T09:19:36.743Z,1.15
2018-01-01T09:22:03.768Z,1.20
2018-01-01T09:24:31.233Z,1.15
2018-01-01T09:26:58.002Z,1.42
2018-01-01T09:29:24.738Z,1.37
2018-01-01T09:31:51.451Z,1.00
2018-01-01T09:34:18.467Z,1.50
2018-01-01T09:36:45.467Z,1.25
2018-01-01T09:39:12.395Z,1.20
2018-01-01T09:41:39.340Z,1.05
2018-01-01T09:44:06.062Z,1.50
2018-01-01T09:46:33.130Z,1.20
2018-01-01T09:48:59.839Z,0.80
2018-01-01T09:51:27.031Z,1.40
2018-01-01T09:53:53.746Z,1.20
2018-01-01T09:56:20.445Z,1.25
2018-01-01T09:58:47.551Z,1.30
2018-01-01T10:01:14.274Z,1.90
2018-01-01T10:03:40.985Z,1.25
2018-01-01T10:06:07.714Z,1.70
2018-01-01T10:08:34.429Z,1.48
2018-01-01T10:11:01.463Z,1.40
2018-01-01T10:13:28.475Z,1.62
2018-01-01T10:15:55.191Z,2.10
2018-01-01T10:18:21.875Z,0.80
2018-01-01T10:20:48.814Z,1.58
2018-01-01T10:23:15.502Z,1.00
2018-01-01T10:25:42.657Z,1.20
2018-01-01T10:28:09.339Z,1.15
2018-01-01T10:30:36.355Z,1.12
2018-01-01T10:33:03.821Z,1.40
2018-01-01T10:35:31.519Z,1.30
2018-01-01T10:37:58.194Z,1.30
2018-01-01T10:40:25.279Z,1.52
2018-01-01T10:42:52.735Z,1.08
2018-01-01T10:45:19.452Z,1.00
2018-01-01T10:47:46.286Z,1.40
2018-01-01T10:50:14.188Z,1.23
2018-01-01T10:52:40.881Z,0.80
2018-01-01T10:55:07.937Z,0.98
2018-01-01T10:57:35.445Z,0.73
2018-01-01T11:00:02.159Z,1.15
2018-01-01T11:02:29.311Z,1.02
2018-01-01T11:04:56.046Z,1.08
2018-01-01T11:07:23.574Z,0.80
2018-01-01T11:09:50.991Z,0.93
2018-01-01T11:12:17.759Z,1.33
2018-01-01T11:14:44.838Z,1.20
2018-01-01T11:17:11.531Z,1.30
2018-01-01T11:19:38.442Z,1.15
2018-01-01T11:22:05.622Z,1.60
2018-01-01T11:24:32.672Z,1.33
2018-01-01T11:26:59.622Z,1.33
2018-01-01T11:29:26.302Z,1.67
2018-01-01T11:31:53.143Z,1.85
2018-01-01T11:34:20.056Z,2.60
2018-01-01T11:36:46.764Z,2.40
2018-01-01T11:39:13.443Z,2.30
2018-01-01T11:41:40.527Z,2.60
2018-01-01T11:44:07.215Z,2.78
2018-01-01T11:46:33.928Z,3.22
2018-01-01T11:49:00.604Z,1.70
2018-01-01T11:51:27.310Z,1.50
2018-01-01T11:53:53.991Z,1.50
2018-01-01T11:56:22.836Z,1.33
2018-01-01T11:58:53.761Z,1.50
2018-01-01T12:01:25.900Z,1.77
2018-01-01T12:03:54.703Z,1.67
2018-01-01T12:06:21.442Z,1.92
2018-01-01T12:08:48.563Z,1.45
2018-01-01T12:11:17.920Z,1.42
2018-01-01T12:13:45.570Z,1.35
2018-01-01T12:16:12.504Z,2.35
2018-01-01T12:18:39.203Z,1.60
2018-01-01T12:21:10.127Z,1.17
2018-01-01T12:23:38.326Z,1.30
2018-01-01T12:26:07.983Z,1.58
2018-01-01T12:28:36.020Z,2.10
2018-01-01T12:31:03.482Z,1.48
2018-01-01T12:33:30.874Z,1.90
2018-01-01T12:36:03.959Z,1.25
2018-01-01T12:38:30.997Z,2.15
2018-01-01T12:40:59.602Z,1.48
2018-01-01T12:43:26.698Z,1.40
2018-01-01T12:45:57.824Z,1.40
2018-01-01T12:48:24.661Z,1.50
2018-01-01T12:53:26.594Z,1.40
2018-01-01T12:58:27.012Z,1.48
2018-01-01T13:00:54.657Z,1.60
2018-01-01T13:03:22.220Z,1.30
2018-01-01T13:05:50.209Z,1.12
2018-01-01T13:08:18.999Z,1.40
2018-01-01T13:10:46.932Z,1.10
2018-01-01T13:13:14.715Z,1.25
2018-01-01T13:15:42.755Z,1.52
2018-01-01T13:18:09.907Z,1.30
2018-01-01T13:20:38.325Z,1.70
2018-01-01T13:23:05.788Z,1.55
2018-01-01T13:25:32.488Z,1.65
2018-01-01T13:27:59.556Z,1.70
2018-01-01T13:30:26.786Z,1.50
2018-01-01T13:32:54.467Z,1.73
2018-01-01T13:35:23.643Z,1.65
2018-01-01T13:37:51.859Z,2.80
2018-01-01T13:40:18.801Z,1.65
2018-01-01T13:42:47.130Z,1.37
2018-01-01T13:45:13.899Z,2.05
2018-01-01T13:47:40.606Z,1.42
2018-01-01T13:50:07.756Z,1.42
2018-01-01T13:55:10.857Z,1.20
2018-01-01T13:57:39.831Z,1.37
2018-01-01T14:00:07.814Z,1.58
2018-01-01T14:02:35.311Z,1.60
2018-01-01T14:05:02.390Z,1.70
2018-01-01T14:07:32.871Z,1.05
2018-01-01T14:10:05.432Z,1.20
2018-01-01T14:12:32.866Z,1.25
2018-01-01T14:15:04.271Z,1.62
2018-01-01T14:17:31.474Z,1.48
2018-01-01T14:19:58.735Z,1.60
2018-01-01T14:22:25.452Z,1.55
2018-01-01T14:24:52.137Z,2.65
2018-01-01T14:27:19.091Z,1.00
2018-01-01T14:29:45.791Z,1.15
2018-01-01T14:32:12.499Z,1.85
2018-01-01T14:34:39.500Z,1.30
2018-01-01T14:37:06.519Z,1.73
2018-01-01T14:39:33.486Z,2.10
2018-01-01T14:42:01.838Z,1.15
2018-01-01T14:44:29.712Z,1.45
2018-01-01T14:46:56.630Z,1.50
2018-01-01T14:49:23.618Z,1.40
2018-01-01T14:51:50.667Z,2.53
2018-01-01T14:54:17.809Z,1.15
2018-01-01T14:56:46.512Z,1.23
2018-01-01T14:59:13.925Z,1.33
2018-01-01T15:01:41.295Z,1.95
2018-01-01T15:04:08.239Z,1.62
2018-01-01T15:06:35.233Z,1.20
2018-01-01T15:09:04.075Z,1.10
2018-01-01T15:11:32.810Z,1.48
2018-01-01T15:14:00.019Z,1.77
2018-01-01T15:16:42.227Z,1.35
2018-01-01T15:19:09.232Z,1.30
2018-01-01T15:21:36.662Z,1.98
2018-01-01T15:24:04.253Z,1.80
2018-01-01T15:26:31.438Z,1.20
2018-01-01T15:28:58.186Z,1.33
2018-01-01T15:31:26.894Z,1.48
2018-01-01T15:33:53.961Z,2.30
2018-01-01T15:36:20.940Z,1.70
2018-01-01T15:38:48.053Z,1.62
2018-01-01T15:41:15.119Z,1.40
2018-01-01T15:46:15.023Z,2.28
2018-01-01T15:48:42.039Z,1.65
2018-01-01T15:51:09.051Z,1.70
2018-01-01T15:53:36.149Z,1.30
2018-01-01T15:56:03.271Z,1.10
2018-01-01T15:58:30.314Z,1.40
2018-01-01T16:00:57.879Z,1.40
2018-01-01T16:03:24.906Z,2.30
2018-01-01T16:05:51.953Z,1.70
2018-01-01T16:08:19.074Z,1.55
2018-01-01T16:10:46.887Z,1.48
2018-01-01T16:13:14.497Z,1.20
2018-01-01T16:15:41.246Z,1.60
2018-01-01T16:18:08.907Z,1.70
2018-01-01T16:20:36.199Z,1.90
2018-01-01T16:23:03.176Z,1.70
2018-01-01T16:25:30.778Z,1.52
2018-01-01T16:27:58.966Z,1.87
2018-01-01T16:30:26.135Z,4.00
2018-01-01T16:32:53.451Z,4.32
2018-01-01T16:35:20.472Z,2.60
2018-01-01T16:37:47.513Z,2.47
2018-01-01T16:40:14.580Z,2.55
2018-01-01T16:42:41.348Z,1.65
2018-01-01T16:45:08.354Z,2.10
2018-01-01T16:47:35.392Z,2.20
2018-01-01T16:50:02.190Z,1.70
2018-01-01T16:52:29.257Z,1.73
2018-01-01T16:54:56.370Z,1.62
2018-01-01T16:57:24.479Z,2.85
2018-01-01T16:59:51.339Z,2.62
2018-01-01T17:02:19.286Z,1.92
2018-01-01T17:04:46.074Z,2.20
2018-01-01T17:07:13.252Z,1.83
2018-01-01T17:09:40.790Z,2.20
2018-01-01T17:12:07.864Z,1.80
2018-01-01T17:14:35.882Z,4.35
2018-01-01T17:17:02.609Z,2.12
2018-01-01T17:19:29.688Z,1.98
2018-01-01T17:21:58.253Z,1.90
2018-01-01T17:24:25.045Z,2.20
2018-01-01T17:26:51.799Z,1.80
2018-01-01T17:29:18.542Z,2.87
2018-01-01T17:31:45.332Z,2.72
2018-01-01T17:34:12.138Z,4.93
2018-01-01T17:36:39.638Z,3.17
2018-01-01T17:39:07.219Z,4.95
2018-01-01T17:41:33.991Z,4.43
2018-01-01T17:44:00.766Z,5.50
2018-01-01T17:46:27.543Z,4.62
2018-01-01T17:48:54.297Z,3.80
2018-01-01T17:51:21.494Z,2.78
2018-01-01T17:53:48.273Z,2.30
2018-01-01T17:56:15.007Z,2.95
2018-01-01T17:58:41.978Z,2.03
2018-01-01T18:01:08.700Z,3.17
2018-01-01T18:03:35.410Z,4.82
2018-01-01T18:06:02.179Z,2.92
2018-01-01T18:08:28.942Z,3.05
2018-01-01T18:10:55.702Z,3.65
2018-01-01T18:13:22.470Z,3.78
2018-01-01T18:15:50.299Z,2.45
2018-01-01T18:18:19.146Z,2.12
2018-01-01T18:20:45.946Z,2.22
2018-01-01T18:23:12.733Z,1.77
2018-01-01T18:25:39.496Z,2.10
2018-01-01T18:28:06.746Z,2.33
2018-01-01T18:30:33.534Z,1.70
2018-01-01T18:33:00.642Z,1.50
2018-01-01T18:35:28.715Z,1.75
2018-01-01T18:37:57.971Z,1.12
2018-01-01T18:40:25.044Z,1.35
2018-01-01T18:42:55.587Z,1.20
2018-01-01T18:45:26.156Z,0.95
2018-01-01T18:47:53.416Z,1.30
2018-01-01T18:50:22.970Z,1.10
2018-01-01T18:52:50.023Z,1.12
2018-01-01T18:55:16.813Z,1.02
2018-01-01T18:57:45.659Z,1.05
2018-01-01T19:00:12.479Z,1.60
2018-01-01T19:02:39.257Z,3.10
2018-01-01T19:05:07.863Z,1.70
2018-01-01T19:07:36.742Z,1.08
2018-01-01T19:15:09.738Z,1.70
2018-01-01T19:59:43.657Z,1.65
2018-01-01T20:04:54.158Z,1.98
2018-01-01T20:09:53.459Z,2.60
2018-01-01T20:12:20.231Z,2.50
2018-01-01T20:17:25.943Z,2.25
2018-01-01T20:19:53.827Z,1.95
2018-01-01T20:22:25.959Z,2.60
2018-01-01T20:30:10.749Z,2.15
2018-01-01T20:35:08.749Z,5.55
2018-01-01T20:37:42.262Z,3.97
2018-01-01T20:40:11.808Z,3.15
2018-01-01T20:42:39.478Z,1.35
2018-01-01T20:45:07.149Z,2.00
2018-01-01T20:50:06.478Z,1.87
2018-01-01T20:52:34.786Z,2.55
2018-01-01T20:55:08.178Z,2.00
2018-01-01T20:57:37.454Z,2.33
2018-01-01T21:00:04.491Z,2.22
2018-01-01T21:10:09.775Z,2.03
2018-01-01T21:12:36.770Z,2.85
2018-01-01T21:17:37.023Z,2.33
2018-01-01T21:22:37.278Z,2.10
2018-01-01T21:25:05.581Z,2.20
2018-01-01T21:27:33.173Z,2.67
2018-01-01T21:30:02.507Z,3.45
2018-01-01T21:32:33.680Z,2.70
2018-01-01T21:35:02.492Z,3.10
2018-01-01T21:37:29.914Z,3.53
2018-01-01T21:39:57.438Z,3.20
2018-01-01T21:50:05.430Z,3.25
2018-01-01T21:55:04.834Z,4.03
2018-01-01T22:05:09.133Z,4.22
2018-01-01T22:07:40.693Z,3.87
2018-01-01T22:10:13.367Z,3.30
2018-01-01T22:12:41.611Z,3.80
2018-01-01T22:15:08.734Z,3.45
2018-01-01T22:17:38.755Z,4.18
2018-01-01T22:22:38.095Z,3.30
2018-01-01T22:25:06.306Z,3.85
2018-01-01T22:30:08.666Z,3.90
2018-01-01T22:32:37.418Z,3.20
2018-01-01T22:37:40.981Z,3.10
2018-01-01T22:42:54.930Z,3.45
2018-01-01T22:47:54.339Z,3.40
2018-01-01T22:50:22.911Z,3.03
2018-01-01T22:52:50.342Z,2.37
2018-01-01T23:00:25.583Z,2.85
2018-01-01T23:02:52.802Z,2.87
2018-01-01T23:20:53.793Z,2.30
2018-01-01T23:25:54.123Z,1.48
2018-01-01T23:28:21.791Z,1.60
2018-01-01T23:30:49.738Z,1.52
2018-01-01T23:33:16.463Z,1.73
2018-01-01T23:35:46.622Z,1.40
2018-01-01T23:40:46.102Z,1.60
2018-01-01T23:43:20.216Z,1.90
2018-01-01T23:45:52.013Z,1.40
2018-01-01T23:53:25.847Z,2.05
2018-01-01T23:58:25.979Z,2.17
